^^
Meteo Knjazevac Station Historical Data
Daily Summary for March 8, 2021 Units:  English    Metric   Both
Daily Weekly Monthly Yearly Custom
  High: Low: Average:
Temperature: 38.8 °F 26.6 °F 33.2 °F
Dew Point: 35 °F 26.1 °F 31.5 °F
Humidity: 99% 84% 94%
Wind Speed: 12mph 0mph 2.4mph
Wind Gust: 17mph - -
Wind- - West
Pressure: 29.90 in 29.80 in -
Precipitation: 0.00 in    
Historical Graphs
 
 
Tabular Data for March 8, 2021
Time Temperature Dew Point Pressure Wind Wind Speed Wind Gust Humidity Rainfall Rate (Hourly) solar Conditions
00:00 33.4 °F 32.9 °F 29.80 in WNW 1 mph 6 mph 98% 0.00 in 0 W/m2
00:10 33.3 °F 32.8 °F 29.80 in WNW 3 mph 8 mph 98% 0.00 in 0 W/m2
00:20 33.3 °F 32.8 °F 29.81 in WNW 1 mph 8 mph 98% 0.00 in 0 W/m2
00:30 33.4 °F 32.9 °F 29.81 in WNW 2 mph 7 mph 98% 0.00 in 0 W/m2
00:40 33.3 °F 32.8 °F 29.81 in NW 1 mph 8 mph 98% 0.00 in 0 W/m2
00:50 33.3 °F 32.8 °F 29.82 in NW 1 mph 6 mph 98% 0.00 in 0 W/m2
01:00 33.3 °F 32.8 °F 29.82 in North 2 mph 8 mph 98% 0.00 in 0 W/m2
01:10 33.3 °F 32.8 °F 29.82 in NNW 2 mph 9 mph 98% 0.00 in 0 W/m2
01:20 33.3 °F 32.8 °F 29.82 in NNW 1 mph 7 mph 98% 0.00 in 0 W/m2
01:30 33.3 °F 32.8 °F 29.83 in NW 2 mph 7 mph 98% 0.00 in 0 W/m2
01:40 33.3 °F 32.8 °F 29.83 in NNW 1 mph 8 mph 98% 0.00 in 0 W/m2
01:50 33.3 °F 32.8 °F 29.83 in NW 1 mph 7 mph 98% 0.00 in 0 W/m2
02:00 33.3 °F 33 °F 29.83 in NNW 2 mph 8 mph 99% 0.00 in 0 W/m2
02:10 33.1 °F 32.8 °F 29.83 in NW 1 mph 7 mph 99% 0.00 in 0 W/m2
02:20 33.1 °F 32.8 °F 29.83 in NW 2 mph 8 mph 99% 0.00 in 0 W/m2
02:30 33.1 °F 32.8 °F 29.83 in NW 1 mph 7 mph 99% 0.00 in 0 W/m2
02:40 33.1 °F 32.8 °F 29.83 in NNW 2 mph 8 mph 99% 0.00 in 0 W/m2
02:50 33.1 °F 32.8 °F 29.83 in NNW 1 mph 8 mph 99% 0.00 in 0 W/m2
03:00 33.1 °F 32.8 °F 29.83 in NNW 1 mph 8 mph 99% 0.00 in 0 W/m2
03:10 33.1 °F 32.6 °F 29.83 in NW 1 mph 7 mph 98% 0.00 in 0 W/m2
03:20 33.1 °F 32.6 °F 29.83 in NW 1 mph 6 mph 98% 0.00 in 0 W/m2
03:30 33.1 °F 32.6 °F 29.83 in NW 1 mph 6 mph 98% 0.00 in 0 W/m2
03:40 33.1 °F 32.6 °F 29.83 in NNW 3 mph 8 mph 98% 0.00 in 0 W/m2
03:50 33.1 °F 32.6 °F 29.84 in NW 3 mph 7 mph 98% 0.00 in 0 W/m2
04:00 33.1 °F 32.6 °F 29.84 in NNW 1 mph 7 mph 98% 0.00 in 0 W/m2
04:10 33.1 °F 32.1 °F 29.84 in WNW 2 mph 7 mph 96% 0.00 in 0 W/m2
04:20 33.1 °F 32.1 °F 29.84 in NW 2 mph 9 mph 96% 0.00 in 0 W/m2
04:30 33.1 °F 32.1 °F 29.84 in NW 2 mph 8 mph 96% 0.00 in 0 W/m2
04:40 33.1 °F 32.1 °F 29.84 in NNW 3 mph 9 mph 96% 0.00 in 0 W/m2
04:50 33.1 °F 32.1 °F 29.85 in WNW 3 mph 12 mph 96% 0.00 in 0 W/m2
05:00 33.1 °F 32.1 °F 29.85 in North 3 mph 8 mph 96% 0.00 in 0 W/m2
05:10 33.3 °F 32 °F 29.85 in NNW 5 mph 10 mph 95% 0.00 in 0 W/m2
05:20 33.3 °F 32 °F 29.86 in North 3 mph 9 mph 95% 0.00 in 0 W/m2
05:30 33.3 °F 32 °F 29.86 in NNW 2 mph 9 mph 95% 0.00 in 0 W/m2
05:40 33.3 °F 31.7 °F 29.86 in NW 2 mph 8 mph 94% 0.00 in 0 W/m2
05:50 33.3 °F 31.7 °F 29.87 in NNW 3 mph 9 mph 94% 0.00 in 0 W/m2
06:00 33.3 °F 31.7 °F 29.87 in NNW 2 mph 8 mph 94% 0.00 in 0 W/m2
06:10 33.3 °F 31.7 °F 29.87 in NW 2 mph 9 mph 94% 0.00 in 0 W/m2
06:20 33.3 °F 31.7 °F 29.87 in NW 2 mph 9 mph 94% 0.00 in 0 W/m2
06:30 33.3 °F 31.7 °F 29.88 in NNW 2 mph 10 mph 94% 0.00 in 0 W/m2
06:40 33.3 °F 31.7 °F 29.88 in NNW 3 mph 9 mph 94% 0.00 in 0 W/m2
06:50 33.4 °F 31.6 °F 29.88 in NNW 3 mph 9 mph 93% 0.00 in 0 W/m2
07:00 33.4 °F 31.6 °F 29.89 in NNW 3 mph 8 mph 93% 0.00 in 1 W/m2
07:10 33.4 °F 31.6 °F 29.89 in NNW 2 mph 9 mph 93% 0.00 in 2 W/m2
07:20 33.4 °F 31.6 °F 29.89 in NW 1 mph 7 mph 93% 0.00 in 5 W/m2
07:30 33.4 °F 31.6 °F 29.89 in NNW 2 mph 9 mph 93% 0.00 in 7 W/m2
07:40 33.6 °F 31.8 °F 29.89 in NW 1 mph 7 mph 93% 0.00 in 8 W/m2
07:50 33.6 °F 32.1 °F 29.89 in Calm   5 mph 94% 0.00 in 9 W/m2
08:00 33.6 °F 32 °F 29.89 in Calm   3 mph 94% 0.00 in 6 W/m2
08:10 33.4 °F 31.9 °F 29.89 in Calm   5 mph 94% 0.00 in 15 W/m2
08:20 33.4 °F 31.9 °F 29.89 in NNW 1 mph 3 mph 94% 0.00 in 19 W/m2
08:30 33.6 °F 32.1 °F 29.89 in Calm   4 mph 94% 0.00 in 24 W/m2
08:40 33.6 °F 32.3 °F 29.89 in Calm   3 mph 95% 0.00 in 43 W/m2
08:50 33.6 °F 32.3 °F 29.89 in Calm   4 mph 95% 0.00 in 64 W/m2
09:00 33.8 °F 32.5 °F 29.89 in NNW 1 mph 5 mph 95% 0.00 in 52 W/m2
09:10 34 °F 32.7 °F 29.90 in NW 1 mph 5 mph 95% 0.00 in 78 W/m2
09:20 34 °F 32.7 °F 29.89 in WSW 1 mph 7 mph 95% 0.00 in 95 W/m2
09:30 34.2 °F 32.6 °F 29.89 in WNW 2 mph 6 mph 94% 0.00 in 125 W/m2
09:40 34.5 °F 33 °F 29.89 in WNW 1 mph 6 mph 94% 0.00 in 107 W/m2
09:50 34.5 °F 33 °F 29.89 in WNW 2 mph 10 mph 94% 0.00 in 114 W/m2
10:00 34.7 °F 32.9 °F 29.89 in West 2 mph 10 mph 93% 0.00 in 105 W/m2
10:10 34.7 °F 32.9 °F 29.89 in WNW 1 mph 7 mph 93% 0.00 in 142 W/m2
10:20 34.9 °F 32.5 °F 29.89 in WNW 2 mph 9 mph 91% 0.00 in 121 W/m2
10:30 35 °F 33.2 °F 29.88 in WNW 1 mph 7 mph 93% 0.00 in 128 W/m2
10:40 35.2 °F 32.9 °F 29.88 in WNW 1 mph 6 mph 91% 0.00 in 152 W/m2
10:50 35.4 °F 33.1 °F 29.88 in WNW 1 mph 5 mph 91% 0.00 in 166 W/m2
11:00 35.4 °F 32.8 °F 29.88 in West 1 mph 8 mph 90% 0.00 in 186 W/m2
11:10 35.6 °F 33 °F 29.88 in SW 9 mph 15 mph 90% 0.00 in 195 W/m2
11:20 35.8 °F 33.1 °F 29.87 in SW 7 mph 14 mph 90% 0.00 in 167 W/m2
11:30 35.8 °F 32.9 °F 29.88 in SW 9 mph 15 mph 89% 0.00 in 104 W/m2
11:40 35.6 °F 32.7 °F 29.88 in SW 9 mph 17 mph 89% 0.00 in 85 W/m2
11:50 35.4 °F 32.2 °F 29.88 in SW 12 mph 17 mph 88% 0.00 in 95 W/m2
12:00 35.4 °F 32.5 °F 29.88 in SW 8 mph 15 mph 89% 0.00 in 102 W/m2
12:10 35.6 °F 32.4 °F 29.88 in SW 10 mph 15 mph 88% 0.00 in 100 W/m2
12:20 35.8 °F 32.8 °F 29.88 in SW 7 mph 16 mph 89% 0.00 in 133 W/m2
12:30 36 °F 33 °F 29.88 in SW 7 mph 15 mph 89% 0.00 in 151 W/m2
12:40 36.1 °F 32.9 °F 29.88 in SW 7 mph 16 mph 88% 0.00 in 181 W/m2
12:50 36.5 °F 33.3 °F 29.87 in SW 7 mph 13 mph 88% 0.00 in 172 W/m2
13:00 36.9 °F 33.6 °F 29.87 in SW 7 mph 12 mph 88% 0.00 in 271 W/m2
13:10 37.4 °F 34.2 °F 29.87 in SSW 8 mph 13 mph 88% 0.00 in 257 W/m2
13:20 38.1 °F 34.9 °F 29.87 in SSW 5 mph 13 mph 88% 0.00 in 243 W/m2
13:30 38.5 °F 34.7 °F 29.87 in SSW 5 mph 13 mph 86% 0.00 in 227 W/m2
13:40 38.8 °F 35 °F 29.87 in SSW 3 mph 8 mph 86% 0.00 in 210 W/m2
13:50 38.8 °F 34.7 °F 29.87 in SSW 6 mph 9 mph 85% 0.00 in 188 W/m2
14:00 38.8 °F 34.7 °F 29.86 in SSE 3 mph 9 mph 85% 0.00 in 175 W/m2
14:10 38.7 °F 34.8 °F 29.87 in SE 5 mph 10 mph 86% 0.00 in 156 W/m2
14:20 38.8 °F 35 °F 29.87 in SSE 6 mph 10 mph 86% 0.00 in 137 W/m2
14:30 38.5 °F 34.4 °F 29.87 in South 5 mph 10 mph 85% 0.00 in 118 W/m2
14:40 38.8 °F 34.7 °F 29.88 in SSW 5 mph 8 mph 85% 0.00 in 99 W/m2
14:50 38.8 °F 34.4 °F 29.88 in SSW 3 mph 9 mph 84% 0.00 in 80 W/m2
15:00 38.7 °F 34.2 °F 29.88 in SSW 5 mph 9 mph 84% 0.00 in 61 W/m2
15:10 38.5 °F 34.1 °F 29.88 in SSW 3 mph 6 mph 84% 0.00 in 43 W/m2
15:20 38.3 °F 33.9 °F 29.88 in SSW 3 mph 6 mph 84% 0.00 in 27 W/m2
15:30 38.1 °F 34 °F 29.88 in SSW 2 mph 5 mph 85% 0.00 in 12 W/m2
15:40 37.6 °F 33.5 °F 29.88 in South 2 mph 5 mph 85% 0.00 in 16 W/m2
15:50 36.9 °F 33.1 °F 29.88 in South 1 mph 5 mph 86% 0.00 in 7 W/m2
16:00 36.1 °F 32.9 °F 29.88 in SW 2 mph 6 mph 88% 0.00 in 0 W/m2
16:10 35.6 °F 32.7 °F 29.88 in South 2 mph 5 mph 89% 0.00 in 0 W/m2
16:20 35.1 °F 32.1 °F 29.88 in WSW 1 mph 4 mph 89% 0.00 in 0 W/m2
16:30 34.5 °F 31.9 °F 29.88 in SW 2 mph 5 mph 90% 0.00 in 0 W/m2
16:40 34.3 °F 31.7 °F 29.87 in WSW 3 mph 7 mph 90% 0.00 in 0 W/m2
16:50 34 °F 31.4 °F 29.88 in SW 6 mph 8 mph 90% 0.00 in 0 W/m2
17:00 34 °F 31.4 °F 29.88 in SW 2 mph 10 mph 90% 0.00 in 0 W/m2
17:10 33.6 °F 31 °F 29.88 in SW 1 mph 3 mph 90% 0.00 in 0 W/m2
17:20 33.4 °F 30.8 °F 29.88 in SSW 1 mph 3 mph 90% 0.00 in 0 W/m2
17:30 33.3 °F 30.9 °F 29.88 in SSW 2 mph 6 mph 91% 0.00 in 0 W/m2
17:40 33.1 °F 30.7 °F 29.88 in SSW 2 mph 4 mph 91% 0.00 in 0 W/m2
17:50 32.5 °F 30.2 °F 29.88 in Calm   2 mph 91% 0.00 in 0 W/m2
18:00 32.4 °F 30.6 °F 29.88 in Calm   2 mph 93% 0.00 in 0 W/m2
18:10 32 °F 30.2 °F 29.88 in Calm   2 mph 93% 0.00 in 0 W/m2
18:20 31.8 °F 30.3 °F 29.88 in WNW 1 mph 2 mph 94% 0.00 in 0 W/m2
18:30 31.5 °F 29.9 °F 29.88 in Calm   3 mph 94% 0.00 in 0 W/m2
18:40 31.6 °F 30.1 °F 29.88 in Calm   5 mph 94% 0.00 in 0 W/m2
18:50 31.5 °F 29.9 °F 29.89 in Calm   3 mph 94% 0.00 in 0 W/m2
19:00 30.9 °F 29.4 °F 29.89 in Calm   2 mph 94% 0.00 in 0 W/m2
19:10 30.6 °F 29.3 °F 29.89 in Calm   1 mph 95% 0.00 in 0 W/m2
19:20 30.4 °F 29.1 °F 29.88 in Calm   2 mph 95% 0.00 in 0 W/m2
19:30 30.2 °F 28.9 °F 29.88 in WNW 1 mph 2 mph 95% 0.00 in 0 W/m2
19:40 30 °F 29 °F 29.88 in WNW 1 mph 2 mph 96% 0.00 in 0 W/m2
19:50 29.8 °F 28.8 °F 29.88 in Calm   2 mph 96% 0.00 in 0 W/m2
20:00 29.5 °F 28.5 °F 29.88 in West 2 mph 6 mph 96% 0.00 in 0 W/m2
20:10 30 °F 29 °F 29.88 in SSW 2 mph 8 mph 96% 0.00 in 0 W/m2
20:20 29.8 °F 28.8 °F 29.87 in WNW 1 mph 3 mph 96% 0.00 in 0 W/m2
20:30 29.5 °F 28.5 °F 29.88 in West 2 mph 5 mph 96% 0.00 in 0 W/m2
20:40 28.9 °F 27.9 °F 29.88 in WNW 2 mph 5 mph 96% 0.00 in 0 W/m2
20:50 28.8 °F 28.3 °F 29.88 in WNW 2 mph 5 mph 98% 0.00 in 0 W/m2
21:00 28.8 °F 28.3 °F 29.88 in WNW 1 mph 5 mph 98% 0.00 in 0 W/m2
21:10 28.6 °F 28.1 °F 29.88 in NW 1 mph 4 mph 98% 0.00 in 0 W/m2
21:20 28 °F 27 °F 29.88 in WNW 2 mph 3 mph 96% 0.00 in 0 W/m2
21:30 27.9 °F 26.9 °F 29.88 in NW 1 mph 3 mph 96% 0.00 in 0 W/m2
21:40 27.5 °F 26.5 °F 29.88 in West 2 mph 5 mph 96% 0.00 in 0 W/m2
21:50 27.1 °F 26.2 °F 29.88 in West 3 mph 4 mph 96% 0.00 in 0 W/m2
22:00 27 °F 26.5 °F 29.88 in West 1 mph 5 mph 98% 0.00 in 0 W/m2
22:10 27 °F 26.5 °F 29.88 in WNW 2 mph 3 mph 98% 0.00 in 0 W/m2
22:20 26.8 °F 26.3 °F 29.88 in WNW 2 mph 4 mph 98% 0.00 in 0 W/m2
22:30 27 °F 26.7 °F 29.87 in NW 2 mph 5 mph 99% 0.00 in 0 W/m2
22:40 27.1 °F 26.9 °F 29.87 in WNW 2 mph 4 mph 99% 0.00 in 0 W/m2
22:50 27 °F 26.7 °F 29.87 in WNW 2 mph 5 mph 99% 0.00 in 0 W/m2
23:00 26.8 °F 26.5 °F 29.87 in NW 1 mph 3 mph 99% 0.00 in 0 W/m2
23:10 26.6 °F 26.1 °F 29.88 in NW 2 mph 3 mph 98% 0.00 in 0 W/m2
23:20 26.6 °F 26.1 °F 29.87 in NNW 2 mph 4 mph 98% 0.00 in 0 W/m2
23:30 26.6 °F 26.4 °F 29.87 in NW 2 mph 4 mph 99% 0.00 in 0 W/m2
23:40 27 °F 26.7 °F 29.87 in WNW 2 mph 4 mph 99% 0.00 in 0 W/m2
23:50 26.8 °F 26.5 °F 29.87 in Calm   3 mph 99% 0.00 in 0 W/m2
Knjazevac, Serbia
Compliments of Weather Underground - 2 mb